This is the latest recevied weather packets stored in our database for station/object DH5DY. If no packets are shown the sender has not sent any weather packets the latest 10 day(s).
| Time | Temp. | Humidity | Pressure | Rain* | Wind** | Luminosity | Snow |
|---|---|---|---|---|---|---|---|
| 1788139815 | 57° F | 92% | 757.4 mmHg | 0.01 in | - | 0 W/m² | - |
| 1788132613 | 57° F | 89% | 757.7 mmHg | 0 in | - | 0 W/m² | - |
| 1788125412 | 58° F | 86% | 758.3 mmHg | 0 in | - | 0 W/m² | - |
| 1788112810 | 67° F | 69% | 758.4 mmHg | 0 in | - | 11 W/m² | - |
| 1788110115 | 70° F | 63% | 758.5 mmHg | 0 in | - | 56 W/m² | - |
| 1788090312 | 71° F | 63% | 758.4 mmHg | 0 in | - | 777 W/m² | - |
| 1788084911 | 67° F | 69% | 758.5 mmHg | 0 in | - | 144 W/m² | - |
| 1788084011 | 67° F | 69% | 758.4 mmHg | 0 in | - | 169 W/m² | - |
| 1788071416 | 63° F | 84% | 757.6 mmHg | 0 in | - | 49 W/m² | - |
| 1788062413 | 63° F | 87% | 756.6 mmHg | 0 in | - | 0 W/m² | - |
| 1788054311 | 65° F | 83% | 756.6 mmHg | 0 in | - | 0 W/m² | - |
| 1788045310 | 65° F | 82% | 757 mmHg | 0 in | - | 0 W/m² | - |
| 1788035413 | 64° F | 84% | 757.2 mmHg | 0 in | - | 0 W/m² | - |
| 1788013814 | 70° F | 61% | 758.1 mmHg | 0 in | - | 35 W/m² | - |
| 1788012014 | 71° F | 60% | 758.2 mmHg | 0 in | - | 98 W/m² | - |
| 1788009313 | 71° F | 63% | 758.5 mmHg | 0 in | - | 250 W/m² | - |
| 1788004814 | 70° F | 64% | 758.5 mmHg | 0 in | - | 134 W/m² | - |
| 1788003012 | 58° F | 92% | 758.2 mmHg | 0 in | - | 0 W/m² | - |
| 1788001212 | 70° F | 69% | 758.6 mmHg | 0 in | - | 176 W/m² | - |
| 1787991314 | 60° F | 93% | 759.1 mmHg | 0 in | - | 65 W/m² | - |
| 1787974216 | 52° F | 94% | 758.8 mmHg | 0 in | - | 0 W/m² | - |
| 1787970615 | 53° F | 94% | 758.9 mmHg | 0 in | - | 0 W/m² | - |
| 1787969715 | 53° F | 94% | 758.8 mmHg | 0 in | - | 0 W/m² | - |
| 1787968815 | 53° F | 94% | 758.8 mmHg | 0 in | - | 0 W/m² | - |
| 1787958012 | 57° F | 93% | 758.8 mmHg | 0 in | - | 0 W/m² | - |
* Rain latest hour (hover to see other rain measurements)
** Current wind speed in m/s (hover to see current wind gust speed)